Oriental Freesia — ZGCD7 — position and weather

sailwx.info

Track history (hours):
 
Tides and Currents Weather Stations Pressure Air Temp Water Temp Dewpoint Dewpoint Depression Visibility Wind Speed Wind Dir Waves Ship Positions

Oriental Freesia

Last reported at 2017-Sep-20 15:40 UTC. Time now 2017-Oct-22 13:58 UTC.
Position N 36°58' E 001°43'.
Warning: this ship's position is 31 days out of date.

Length 134 m; draft 8.3 m.

Type: Ship (hazmat cat A). MMSI: 319349000.

Date/timePositionNaut miles runAvg speedWind from/ knotsBaromVisibWave heightAir tempDewpointWater temp
2017-Sep-20 15:40N 36°58' E 001°43'211.6
2017-Sep-20 15:30N 36°57' E 001°40'11312.3
2017-Sep-20 06:17N 36°33' W 000°38'312.4
2017-Sep-20 06:00N 36°32' W 000°42'21813.1
2017-Sep-19 13:23N 36°04' W 005°10'513.9
2017-Sep-19 13:00N 36°04' W 005°17'5 0.1
2017-Sep-18 00:59N 36°04' W 005°23'3 5.6
2017-Sep-18 00:22N 36°01' W 005°22'411.5
2017-Sep-18 00:00N 35°58' W 005°26'  
2017-Sep-15 09:11N 36°21' W 008°37'211.9
2017-Sep-15 09:01N 36°22' W 008°40'1112.4
2017-Sep-15 08:07N 36°24' W 008°53'112.3
2017-Sep-15 08:00N 36°25' W 008°55'612.5
2017-Sep-15 07:30N 36°26' W 009°02'612.7
2017-Sep-15 07:01N 36°28' W 009°10'612.1
2017-Sep-15 06:29N 36°29' W 009°18'611.8
2017-Sep-15 06:00N 36°33' W 009°23'7712.4
2017-Sep-14 23:50N 37°45' W 009°55'412.4
2017-Sep-14 23:30N 37°49' W 009°56'612.5
2017-Sep-14 23:00N 37°55' W 009°58'612.6
2017-Sep-14 22:30N 38°01' W 009°60'712.5
2017-Sep-14 21:58N 38°08' W 010°02'612.8
2017-Sep-14 21:28N 38°14' W 010°04'713.2
2017-Sep-14 20:58N 38°21' W 010°05'613.3
2017-Sep-14 20:30N 38°27' W 010°07'713.2
2017-Sep-14 19:59N 38°33' W 010°09'613.3
2017-Sep-14 19:30N 38°39' W 010°11'712.9
2017-Sep-14 19:00N 38°46' W 010°11'712.9
2017-Sep-14 18:29N 38°53' W 010°11'612.9
2017-Sep-14 18:01N 38°59' W 010°11'612.8
2017-Sep-14 17:30N 39°05' W 010°11'612.6
2017-Sep-14 17:01N 39°12' W 010°11'2113.3
2017-Sep-14 15:26N 39°33' W 010°11'712.7
2017-Sep-14 14:53N 39°39' W 010°11'1113.2
2017-Sep-14 14:04N 39°50' W 010°11'  
2017-Sep-12 01:33N 49°45' W 003°32'011.4
2017-Sep-12 01:30N 49°45' W 003°32'510.8
2017-Sep-12 01:00N 49°48' W 003°24'510.2
2017-Sep-12 00:30N 49°51' W 003°18'5 9.6
2017-Sep-12 00:01N 49°53' W 003°11'5 9.4
2017-Sep-11 23:31N 49°55' W 003°05'4 8.8
2017-Sep-11 23:00N 49°58' W 002°59'4 8.5
2017-Sep-11 22:30N 49°59' W 002°53'4 8.4
2017-Sep-11 22:00N 50°00' W 002°46'30 9.7
2017-Sep-11 18:56N 50°07' W 002°01'511.9
2017-Sep-11 18:30N 50°08' W 001°53'612.6
2017-Sep-11 18:00N 50°08' W 001°44'612.6
2017-Sep-11 17:31N 50°07' W 001°34'612.0
2017-Sep-11 17:01N 50°04' W 001°26'612.2
2017-Sep-11 16:30N 50°00' W 001°18'612.3
2017-Sep-11 16:01N 49°57' W 001°10'611.7
2017-Sep-11 15:30N 49°54' W 001°02'510.8
2017-Sep-11 15:00N 49°51' W 000°55'5 9.9
2017-Sep-11 14:30N 49°48' W 000°49'24 9.0
2017-Sep-11 11:49N 49°34' W 000°18'3 8.7
2017-Sep-11 11:31N 49°34' W 000°14'6 9.5
2017-Sep-11 10:52N 49°31' W 000°06'3 8.9
2017-Sep-11 10:30N 49°30' W 000°01'4 8.3
2017-Sep-11 10:00N 49°29' E 000°05'3 6.5
2017-Sep-11 09:31N 49°28' E 000°10'0 0.6
2017-Sep-11 09:00N 49°29' E 000°10'1 1.8
2017-Sep-11 08:31N 49°29' E 000°12'2 3.3
2017-Sep-11 08:00N 49°28' E 000°14'0 0.0
2017-Sep-11 07:30N 49°28' E 000°14'0 0.0
2017-Sep-11 07:00N 49°28' E 000°14'0 0.0
2017-Sep-11 06:30N 49°28' E 000°14'0 0.0
2017-Sep-11 06:00N 49°28' E 000°14'0 0.0
2017-Sep-11 05:30N 49°28' E 000°14'0 0.0
2017-Sep-11 05:00N 49°28' E 000°14'0 0.0
2017-Sep-11 04:30N 49°28' E 000°14'0 0.0
2017-Sep-11 04:00N 49°28' E 000°14'0 0.0
2017-Sep-11 03:30N 49°28' E 000°14'0 0.0
2017-Sep-11 03:00N 49°28' E 000°14'0 0.0
2017-Sep-11 02:30N 49°28' E 000°14'0 0.0
2017-Sep-11 01:57N 49°28' E 000°14'0 0.0
2017-Sep-11 01:30N 49°28' E 000°14'0 0.0
2017-Sep-11 01:00N 49°28' E 000°14'0 0.0
2017-Sep-11 00:27N 49°28' E 000°14'0 0.0
2017-Sep-11 00:00N 49°28' E 000°14'0 0.0
2017-Sep-10 23:30N 49°28' E 000°14'0 0.0
2017-Sep-10 23:00N 49°28' E 000°14'0 0.0
2017-Sep-10 22:30N 49°28' E 000°14'0 0.0
2017-Sep-10 22:00N 49°28' E 000°14'0 0.0
2017-Sep-10 21:30N 49°28' E 000°14'0 0.0
2017-Sep-10 21:00N 49°28' E 000°14'0 0.0
2017-Sep-10 20:30N 49°28' E 000°14'0 0.0
2017-Sep-10 20:00N 49°28' E 000°14'0 0.0
2017-Sep-10 19:30N 49°28' E 000°14'0 0.0
2017-Sep-10 19:00N 49°28' E 000°14'0 0.0
2017-Sep-10 18:30N 49°28' E 000°14'0 0.0
2017-Sep-10 18:00N 49°28' E 000°14'0 0.0
2017-Sep-10 17:30N 49°28' E 000°14'0 0.0
2017-Sep-10 17:00N 49°28' E 000°14'0 0.0
2017-Sep-10 16:30N 49°28' E 000°14'0 0.0
2017-Sep-10 16:00N 49°28' E 000°14'  
Track history (hours):
 
Tides and Currents Weather Stations Pressure Air Temp Water Temp Dewpoint Dewpoint Depression Visibility Wind Speed Wind Dir Waves Ship Positions

Oriental Freesia

Last reported at 2017-Sep-20 15:40 UTC. Time now 2017-Oct-22 13:58 UTC.
Position N 36°58' E 001°43'.
Warning: this ship's position is 31 days out of date.

Length 134 m; draft 8.3 m.

Type: Ship (hazmat cat A). MMSI: 319349000.

Date/timePositionNaut miles runAvg speedWind from/ knotsBaromVisibWave heightAir tempDewpointWater temp
2017-Sep-20 15:40N 36°58' E 001°43'211.6
2017-Sep-20 15:30N 36°57' E 001°40'11312.3
2017-Sep-20 06:17N 36°33' W 000°38'312.4
2017-Sep-20 06:00N 36°32' W 000°42'21813.1
2017-Sep-19 13:23N 36°04' W 005°10'513.9
2017-Sep-19 13:00N 36°04' W 005°17'5 0.1
2017-Sep-18 00:59N 36°04' W 005°23'3 5.6
2017-Sep-18 00:22N 36°01' W 005°22'411.5
2017-Sep-18 00:00N 35°58' W 005°26'  
2017-Sep-15 09:11N 36°21' W 008°37'211.9
2017-Sep-15 09:01N 36°22' W 008°40'1112.4
2017-Sep-15 08:07N 36°24' W 008°53'112.3
2017-Sep-15 08:00N 36°25' W 008°55'612.5
2017-Sep-15 07:30N 36°26' W 009°02'612.7
2017-Sep-15 07:01N 36°28' W 009°10'612.1
2017-Sep-15 06:29N 36°29' W 009°18'611.8
2017-Sep-15 06:00N 36°33' W 009°23'7712.4
2017-Sep-14 23:50N 37°45' W 009°55'412.4
2017-Sep-14 23:30N 37°49' W 009°56'612.5
2017-Sep-14 23:00N 37°55' W 009°58'612.6
2017-Sep-14 22:30N 38°01' W 009°60'712.5
2017-Sep-14 21:58N 38°08' W 010°02'612.8
2017-Sep-14 21:28N 38°14' W 010°04'713.2
2017-Sep-14 20:58N 38°21' W 010°05'613.3
2017-Sep-14 20:30N 38°27' W 010°07'713.2
2017-Sep-14 19:59N 38°33' W 010°09'613.3
2017-Sep-14 19:30N 38°39' W 010°11'712.9
2017-Sep-14 19:00N 38°46' W 010°11'712.9
2017-Sep-14 18:29N 38°53' W 010°11'612.9
2017-Sep-14 18:01N 38°59' W 010°11'612.8
2017-Sep-14 17:30N 39°05' W 010°11'612.6
2017-Sep-14 17:01N 39°12' W 010°11'2113.3
2017-Sep-14 15:26N 39°33' W 010°11'712.7
2017-Sep-14 14:53N 39°39' W 010°11'1113.2
2017-Sep-14 14:04N 39°50' W 010°11'  
2017-Sep-12 01:33N 49°45' W 003°32'011.4
2017-Sep-12 01:30N 49°45' W 003°32'510.8
2017-Sep-12 01:00N 49°48' W 003°24'510.2
2017-Sep-12 00:30N 49°51' W 003°18'5 9.6
2017-Sep-12 00:01N 49°53' W 003°11'5 9.4
2017-Sep-11 23:31N 49°55' W 003°05'4 8.8
2017-Sep-11 23:00N 49°58' W 002°59'4 8.5
2017-Sep-11 22:30N 49°59' W 002°53'4 8.4
2017-Sep-11 22:00N 50°00' W 002°46'30 9.7
2017-Sep-11 18:56N 50°07' W 002°01'511.9
2017-Sep-11 18:30N 50°08' W 001°53'612.6
2017-Sep-11 18:00N 50°08' W 001°44'612.6
2017-Sep-11 17:31N 50°07' W 001°34'612.0
2017-Sep-11 17:01N 50°04' W 001°26'612.2
2017-Sep-11 16:30N 50°00' W 001°18'612.3
2017-Sep-11 16:01N 49°57' W 001°10'611.7
2017-Sep-11 15:30N 49°54' W 001°02'510.8
2017-Sep-11 15:00N 49°51' W 000°55'5 9.9
2017-Sep-11 14:30N 49°48' W 000°49'24 9.0
2017-Sep-11 11:49N 49°34' W 000°18'3 8.7
2017-Sep-11 11:31N 49°34' W 000°14'6 9.5
2017-Sep-11 10:52N 49°31' W 000°06'3 8.9
2017-Sep-11 10:30N 49°30' W 000°01'4 8.3
2017-Sep-11 10:00N 49°29' E 000°05'3 6.5
2017-Sep-11 09:31N 49°28' E 000°10'0 0.6
2017-Sep-11 09:00N 49°29' E 000°10'1 1.8
2017-Sep-11 08:31N 49°29' E 000°12'2 3.3
2017-Sep-11 08:00N 49°28' E 000°14'0 0.0
2017-Sep-11 07:30N 49°28' E 000°14'0 0.0
2017-Sep-11 07:00N 49°28' E 000°14'0 0.0
2017-Sep-11 06:30N 49°28' E 000°14'0 0.0
2017-Sep-11 06:00N 49°28' E 000°14'0 0.0
2017-Sep-11 05:30N 49°28' E 000°14'0 0.0
2017-Sep-11 05:00N 49°28' E 000°14'0 0.0
2017-Sep-11 04:30N 49°28' E 000°14'0 0.0
2017-Sep-11 04:00N 49°28' E 000°14'0 0.0
2017-Sep-11 03:30N 49°28' E 000°14'0 0.0
2017-Sep-11 03:00N 49°28' E 000°14'0 0.0
2017-Sep-11 02:30N 49°28' E 000°14'0 0.0
2017-Sep-11 01:57N 49°28' E 000°14'0 0.0
2017-Sep-11 01:30N 49°28' E 000°14'0 0.0
2017-Sep-11 01:00N 49°28' E 000°14'0 0.0
2017-Sep-11 00:27N 49°28' E 000°14'0 0.0
2017-Sep-11 00:00N 49°28' E 000°14'0 0.0
2017-Sep-10 23:30N 49°28' E 000°14'0 0.0
2017-Sep-10 23:00N 49°28' E 000°14'0 0.0
2017-Sep-10 22:30N 49°28' E 000°14'0 0.0
2017-Sep-10 22:00N 49°28' E 000°14'0 0.0
2017-Sep-10 21:30N 49°28' E 000°14'0 0.0
2017-Sep-10 21:00N 49°28' E 000°14'0 0.0
2017-Sep-10 20:30N 49°28' E 000°14'0 0.0
2017-Sep-10 20:00N 49°28' E 000°14'0 0.0
2017-Sep-10 19:30N 49°28' E 000°14'0 0.0
2017-Sep-10 19:00N 49°28' E 000°14'0 0.0
2017-Sep-10 18:30N 49°28' E 000°14'0 0.0
2017-Sep-10 18:00N 49°28' E 000°14'0 0.0
2017-Sep-10 17:30N 49°28' E 000°14'0 0.0
2017-Sep-10 17:00N 49°28' E 000°14'0 0.0
2017-Sep-10 16:30N 49°28' E 000°14'0 0.0
2017-Sep-10 16:00N 49°28' E 000°14'  

Dump ship's entire track history